sensor_id;sensor_type;location;lat;lon;timestamp;pressure;altitude;pressure_sealevel;temperature;humidity
50650;BME280;36621;60.058;30.346;2022-11-04T00:06:57;101682.16;;;3.55;61.17
50650;BME280;36621;60.058;30.346;2022-11-04T00:14:30;101690.75;;;3.65;61.17
50650;BME280;36621;60.058;30.346;2022-11-04T00:22:03;101681.59;;;3.67;61.00
50650;BME280;36621;60.058;30.346;2022-11-04T00:29:55;101680.59;;;3.81;60.83
50650;BME280;36621;60.058;30.346;2022-11-04T00:37:27;101683.50;;;3.79;61.22
50650;BME280;36621;60.058;30.346;2022-11-04T00:45:00;101682.50;;;3.87;61.38
50650;BME280;36621;60.058;30.346;2022-11-04T00:52:32;101684.78;;;3.97;60.84
50650;BME280;36621;60.058;30.346;2022-11-04T01:00:05;101684.78;;;3.90;61.64
50650;BME280;36621;60.058;30.346;2022-11-04T01:07:37;101693.53;;;3.99;61.55
50650;BME280;36621;60.058;30.346;2022-11-04T01:15:10;101688.31;;;4.04;61.45
50650;BME280;36621;60.058;30.346;2022-11-04T01:22:42;101691.47;;;4.08;61.11
50650;BME280;36621;60.058;30.346;2022-11-04T01:30:15;101690.22;;;4.10;61.74
50650;BME280;36621;60.058;30.346;2022-11-04T01:37:47;101686.25;;;4.06;61.84
50650;BME280;36621;60.058;30.346;2022-11-04T01:45:39;101686.25;;;4.06;61.80
50650;BME280;36621;60.058;30.346;2022-11-04T01:53:14;101687.28;;;4.05;62.21
50650;BME280;36621;60.058;30.346;2022-11-04T02:00:49;101688.13;;;4.06;62.03
50650;BME280;36621;60.058;30.346;2022-11-04T02:08:21;101681.88;;;3.98;62.40
50650;BME280;36621;60.058;30.346;2022-11-04T02:15:56;101692.25;;;3.88;61.78
50650;BME280;36621;60.058;30.346;2022-11-04T02:31:22;101684.69;;;3.63;61.97
50650;BME280;36621;60.058;30.346;2022-11-04T02:39:02;101691.75;;;3.51;62.58
50650;BME280;36621;60.058;30.346;2022-11-04T02:46:37;101680.94;;;3.58;62.20
50650;BME280;36621;60.058;30.346;2022-11-04T02:54:13;101691.38;;;3.68;62.02
50650;BME280;36621;60.058;30.346;2022-11-04T03:01:48;101704.47;;;3.71;62.33
50650;BME280;36621;60.058;30.346;2022-11-04T03:09:23;101695.53;;;3.77;61.84
50650;BME280;36621;60.058;30.346;2022-11-04T03:17:00;101688.50;;;3.76;62.40
50650;BME280;36621;60.058;30.346;2022-11-04T03:24:36;101688.91;;;3.73;62.07
50650;BME280;36621;60.058;30.346;2022-11-04T03:32:20;101688.03;;;3.72;62.50
50650;BME280;36621;60.058;30.346;2022-11-04T03:40:11;101685.56;;;3.71;62.53
50650;BME280;36621;60.058;30.346;2022-11-04T03:47:47;101661.84;;;3.59;62.98
50650;BME280;36621;60.058;30.346;2022-11-04T03:55:27;101695.16;;;3.87;62.71
50650;BME280;36621;60.058;30.346;2022-11-04T04:03:07;101697.03;;;3.86;62.56
50650;BME280;36621;60.058;30.346;2022-11-04T04:10:47;101703.47;;;3.85;62.39
50650;BME280;36621;60.058;30.346;2022-11-04T04:36:13;101699.72;;;3.86;62.84
50650;BME280;36621;60.058;30.346;2022-11-04T04:44:12;101704.72;;;3.89;62.93
50650;BME280;36621;60.058;30.346;2022-11-04T05:55:02;101736.06;;;3.28;61.66
50650;BME280;36621;60.058;30.346;2022-11-04T06:18:38;101751.66;;;2.98;62.32
50650;BME280;36621;60.058;30.346;2022-11-04T06:26:27;101758.47;;;2.94;62.92
50650;BME280;36621;60.058;30.346;2022-11-04T06:34:02;101764.69;;;2.94;62.46
50650;BME280;36621;60.058;30.346;2022-11-04T06:41:35;101770.59;;;3.05;62.25
50650;BME280;36621;60.058;30.346;2022-11-04T06:49:10;101754.00;;;3.08;60.80
50650;BME280;36621;60.058;30.346;2022-11-04T07:05:51;101761.13;;;2.87;61.26
50650;BME280;36621;60.058;30.346;2022-11-04T08:20:25;101801.38;;;3.52;58.86
50650;BME280;36621;60.058;30.346;2022-11-04T18:01:51;101915.91;;;2.13;59.58
50650;BME280;36621;60.058;30.346;2022-11-04T18:19:24;101926.13;;;1.73;60.34
50650;BME280;36621;60.058;30.346;2022-11-04T18:27:59;101932.72;;;1.85;60.06
50650;BME280;36621;60.058;30.346;2022-11-04T18:36:17;101934.31;;;1.95;59.75
50650;BME280;36621;60.058;30.346;2022-11-04T18:43:57;101938.50;;;1.82;60.49
50650;BME280;36621;60.058;30.346;2022-11-04T18:51:57;101951.59;;;1.85;60.51
50650;BME280;36621;60.058;30.346;2022-11-04T18:59:30;101956.31;;;1.83;60.06
50650;BME280;36621;60.058;30.346;2022-11-04T19:07:06;101961.16;;;1.88;60.33
50650;BME280;36621;60.058;30.346;2022-11-04T19:14:37;101959.38;;;1.80;60.44
50650;BME280;36621;60.058;30.346;2022-11-04T19:22:11;101952.53;;;1.39;61.22
50650;BME280;36621;60.058;30.346;2022-11-04T19:29:46;101960.91;;;1.45;61.25
50650;BME280;36621;60.058;30.346;2022-11-04T19:37:21;101959.69;;;1.47;60.96
50650;BME280;36621;60.058;30.346;2022-11-04T19:44:54;101969.47;;;1.63;60.86
50650;BME280;36621;60.058;30.346;2022-11-04T19:52:34;101981.97;;;1.79;59.94
50650;BME280;36621;60.058;30.346;2022-11-04T20:00:06;101982.09;;;1.78;60.20
50650;BME280;36621;60.058;30.346;2022-11-04T20:07:49;101965.19;;;1.54;59.61
50650;BME280;36621;60.058;30.346;2022-11-04T20:15:24;101996.47;;;1.55;59.96
50650;BME280;36621;60.058;30.346;2022-11-04T20:22:57;101996.34;;;1.48;60.19
50650;BME280;36621;60.058;30.346;2022-11-04T20:30:29;102000.13;;;1.62;59.74
50650;BME280;36621;60.058;30.346;2022-11-04T20:38:02;102008.41;;;1.76;59.65
50650;BME280;36621;60.058;30.346;2022-11-04T20:45:48;102003.66;;;1.78;59.39
50650;BME280;36621;60.058;30.346;2022-11-04T20:53:25;102011.56;;;1.79;59.41
50650;BME280;36621;60.058;30.346;2022-11-04T21:00:58;102008.59;;;1.89;59.19
50650;BME280;36621;60.058;30.346;2022-11-04T21:08:38;102011.50;;;1.49;59.33
50650;BME280;36621;60.058;30.346;2022-11-04T21:16:10;102010.75;;;1.55;59.11
50650;BME280;36621;60.058;30.346;2022-11-04T21:23:47;102008.56;;;1.59;59.11
50650;BME280;36621;60.058;30.346;2022-11-04T21:31:20;102000.97;;;1.39;58.93
50650;BME280;36621;60.058;30.346;2022-11-04T21:39:01;102002.53;;;1.34;58.88
50650;BME280;36621;60.058;30.346;2022-11-04T21:46:34;102009.94;;;1.32;58.76
50650;BME280;36621;60.058;30.346;2022-11-04T21:54:06;102000.31;;;1.14;59.41
50650;BME280;36621;60.058;30.346;2022-11-04T22:01:38;102006.16;;;1.41;59.14
50650;BME280;36621;60.058;30.346;2022-11-04T22:09:11;102008.09;;;1.32;59.13
50650;BME280;36621;60.058;30.346;2022-11-04T22:16:43;102008.91;;;1.33;58.53
50650;BME280;36621;60.058;30.346;2022-11-04T22:24:16;102002.81;;;0.93;59.19
50650;BME280;36621;60.058;30.346;2022-11-04T22:31:48;102005.50;;;0.93;59.48
50650;BME280;36621;60.058;30.346;2022-11-04T22:39:21;102014.00;;;0.73;59.29
50650;BME280;36621;60.058;30.346;2022-11-04T22:46:52;102015.13;;;0.47;59.88
50650;BME280;36621;60.058;30.346;2022-11-04T22:54:25;102018.63;;;0.88;59.46
50650;BME280;36621;60.058;30.346;2022-11-04T23:01:57;102019.41;;;1.28;58.75
50650;BME280;36621;60.058;30.346;2022-11-04T23:09:29;102024.72;;;1.36;58.70
50650;BME280;36621;60.058;30.346;2022-11-04T23:17:04;102028.47;;;1.03;58.68
50650;BME280;36621;60.058;30.346;2022-11-04T23:24:59;102024.84;;;0.88;59.06
50650;BME280;36621;60.058;30.346;2022-11-04T23:32:39;102028.47;;;1.03;58.81
50650;BME280;36621;60.058;30.346;2022-11-04T23:40:11;102020.31;;;0.89;58.56
50650;BME280;36621;60.058;30.346;2022-11-04T23:47:44;102027.03;;;0.53;59.13
50650;BME280;36621;60.058;30.346;2022-11-04T23:55:35;102024.69;;;0.90;58.65
